Time;durP1;ratioP1;P1;durP2;ratioP2;P2;SDS_P1;SDS_P2;PMS_P1;PMS_P2;Temp;Humidity;BMP_temperature;BMP_pressure;BME280_temperature;BME280_humidity;BME280_pressure;Samples;Min_cycle;Max_cycle;Signal;HPM_P1;HPM_P2
2024/01/12 00:01:32;;;;;;;44.60;42.10;;;;;;;;;;5033126;28;19913;-62
2024/01/12 00:03:57;;;;;;;46.53;44.13;;;;;;;;;;5031600;28;20506;-62
2024/01/12 00:06:22;;;;;;;49.08;46.38;;;;;;;;;;5034116;28;20040;-62
2024/01/12 00:08:48;;;;;;;49.88;47.13;;;;;;;;;;5030482;28;20037;-69
2024/01/12 00:11:13;;;;;;;50.17;47.55;;;;;;;;;;5034537;28;20041;-63
2024/01/12 00:13:39;;;;;;;48.70;46.10;;;;;;;;;;5035888;28;20038;-63
2024/01/12 00:16:06;;;;;;;49.92;47.17;;;;;;;;;;5033525;28;20033;-69
2024/01/12 00:18:31;;;;;;;45.38;42.97;;;;;;;;;;5030921;28;20021;-63
2024/01/12 00:20:57;;;;;;;46.95;44.40;;;;;;;;;;5034676;28;20367;-68
2024/01/12 00:23:22;;;;;;;45.55;43.13;;;;;;;;;;5035465;28;20039;-68
2024/01/12 00:25:47;;;;;;;47.30;44.83;;;;;;;;;;5031084;28;20125;-63
2024/01/12 00:28:13;;;;;;;47.40;44.70;;;;;;;;;;5030845;28;20029;-68
2024/01/12 00:30:38;;;;;;;47.95;45.38;;;;;;;;;;5030514;28;20114;-63
2024/01/12 00:33:05;;;;;;;49.00;46.40;;;;;;;;;;5030497;28;20581;-68
2024/01/12 00:35:31;;;;;;;47.83;45.33;;;;;;;;;;5030477;28;20389;-68
2024/01/12 00:37:56;;;;;;;48.40;45.60;;;;;;;;;;5031756;28;20116;-63
2024/01/12 00:40:21;;;;;;;43.42;41.17;;;;;;;;;;5032227;28;20037;-63
2024/01/12 00:42:47;;;;;;;46.05;43.55;;;;;;;;;;5030891;28;20143;-63
2024/01/12 00:45:12;;;;;;;43.38;40.78;;;;;;;;;;5031836;28;20048;-69
2024/01/12 00:47:38;;;;;;;46.72;44.13;;;;;;;;;;5033167;28;20048;-68
2024/01/12 00:50:03;;;;;;;44.90;42.42;;;;;;;;;;5032585;28;20048;-68
2024/01/12 00:52:28;;;;;;;44.95;42.38;;;;;;;;;;5033457;28;20041;-68
2024/01/12 00:54:54;;;;;;;41.75;39.60;;;;;;;;;;5031039;28;20044;-68
2024/01/12 00:57:19;;;;;;;45.08;42.70;;;;;;;;;;5032354;28;20040;-63
2024/01/12 00:59:44;;;;;;;45.88;43.42;;;;;;;;;;5027809;28;20033;-63
2024/01/12 01:02:10;;;;;;;45.08;42.72;;;;;;;;;;5031953;28;20033;-68
2024/01/12 01:04:35;;;;;;;48.17;45.67;;;;;;;;;;5028248;28;20426;-63
2024/01/12 01:07:01;;;;;;;47.20;44.72;;;;;;;;;;5029304;28;20563;-63
2024/01/12 01:09:26;;;;;;;48.60;45.90;;;;;;;;;;5030528;28;20559;-63
2024/01/12 01:11:52;;;;;;;46.53;44.15;;;;;;;;;;5034260;28;20056;-69
2024/01/12 01:14:18;;;;;;;46.55;43.97;;;;;;;;;;5033718;28;20040;-63
2024/01/12 01:16:43;;;;;;;45.38;43.03;;;;;;;;;;5032255;28;20047;-64
2024/01/12 01:19:08;;;;;;;44.88;42.55;;;;;;;;;;5030148;28;20109;-63
2024/01/12 01:21:34;;;;;;;44.22;41.90;;;;;;;;;;5029903;28;20171;-63
2024/01/12 01:23:59;;;;;;;43.13;40.85;;;;;;;;;;5032115;28;20025;-68
2024/01/12 01:26:24;;;;;;;40.85;38.72;;;;;;;;;;5030631;28;20155;-63
2024/01/12 01:28:50;;;;;;;38.88;36.47;;;;;;;;;;5029872;28;20033;-63
2024/01/12 01:31:16;;;;;;;39.03;36.83;;;;;;;;;;5031240;28;20116;-64
2024/01/12 01:33:41;;;;;;;40.58;38.08;;;;;;;;;;5029612;28;20029;-63
2024/01/12 01:36:06;;;;;;;38.88;36.88;;;;;;;;;;5029259;28;20468;-63
2024/01/12 01:38:31;;;;;;;37.53;35.42;;;;;;;;;;5032241;28;20044;-63
2024/01/12 01:40:57;;;;;;;38.20;36.20;;;;;;;;;;5033479;28;20037;-69
2024/01/12 01:43:22;;;;;;;35.55;33.60;;;;;;;;;;5032948;28;20378;-63
2024/01/12 01:45:48;;;;;;;38.70;36.10;;;;;;;;;;5034176;28;20038;-63
2024/01/12 01:48:13;;;;;;;37.95;35.90;;;;;;;;;;5031717;28;20033;-63
2024/01/12 01:50:39;;;;;;;38.35;36.15;;;;;;;;;;5032039;28;20542;-63
2024/01/12 01:53:04;;;;;;;39.53;36.72;;;;;;;;;;5031692;28;20034;-69
2024/01/12 01:55:31;;;;;;;39.28;37.10;;;;;;;;;;5033950;28;20033;-69
2024/01/12 01:57:57;;;;;;;40.83;38.33;;;;;;;;;;5031467;28;20037;-69
2024/01/12 02:00:23;;;;;;;39.70;37.60;;;;;;;;;;5034006;28;20527;-69
2024/01/12 02:02:49;;;;;;;41.00;38.75;;;;;;;;;;5031727;28;20031;-63
2024/01/12 02:05:14;;;;;;;40.60;38.42;;;;;;;;;;5032935;28;20040;-63
2024/01/12 02:07:41;;;;;;;43.45;41.03;;;;;;;;;;5029377;28;20136;-69
2024/01/12 02:10:09;;;;;;;39.53;37.33;;;;;;;;;;5031176;28;20119;-63
2024/01/12 02:12:36;;;;;;;38.47;36.38;;;;;;;;;;5032992;28;20108;-63
2024/01/12 02:15:01;;;;;;;39.95;37.78;;;;;;;;;;5033281;28;20037;-63
2024/01/12 02:17:27;;;;;;;39.53;37.38;;;;;;;;;;5032909;28;20048;-68
2024/01/12 02:19:59;;;;;;;38.55;36.42;;;;;;;;;;5030531;28;20037;-69
2024/01/12 02:22:25;;;;;;;42.05;39.55;;;;;;;;;;5035452;28;20057;-63
2024/01/12 02:24:50;;;;;;;42.17;39.97;;;;;;;;;;5033573;28;20044;-64
2024/01/12 02:27:16;;;;;;;40.92;38.72;;;;;;;;;;5035118;28;20044;-63
2024/01/12 02:29:42;;;;;;;42.88;40.25;;;;;;;;;;5032606;28;20026;-63
2024/01/12 02:32:07;;;;;;;41.92;39.60;;;;;;;;;;5037887;28;20481;-63
2024/01/12 02:34:33;;;;;;;41.92;39.55;;;;;;;;;;5034907;28;20034;-63
2024/01/12 02:36:59;;;;;;;43.10;40.80;;;;;;;;;;5033685;28;20037;-63
2024/01/12 02:39:24;;;;;;;40.97;38.78;;;;;;;;;;5034243;28;20033;-63
2024/01/12 02:41:49;;;;;;;43.22;40.65;;;;;;;;;;5033878;28;20406;-68
2024/01/12 02:44:15;;;;;;;41.10;38.92;;;;;;;;;;5035626;28;20033;-68
2024/01/12 02:46:40;;;;;;;42.72;40.22;;;;;;;;;;5033373;28;20354;-63
2024/01/12 02:49:06;;;;;;;39.08;37.03;;;;;;;;;;5035225;28;20037;-69
2024/01/12 02:51:31;;;;;;;42.28;40.00;;;;;;;;;;5036697;28;20044;-69
2024/01/12 02:53:57;;;;;;;42.38;39.97;;;;;;;;;;5031734;28;20033;-63
2024/01/12 02:56:22;;;;;;;42.30;39.85;;;;;;;;;;5034679;28;20045;-63
2024/01/12 02:58:47;;;;;;;40.80;38.55;;;;;;;;;;5032258;28;20033;-63
2024/01/12 03:01:13;;;;;;;41.15;39.03;;;;;;;;;;5034194;28;20040;-69
2024/01/12 03:03:38;;;;;;;43.22;40.90;;;;;;;;;;5036746;28;20049;-69
2024/01/12 03:06:05;;;;;;;42.50;40.17;;;;;;;;;;5031841;28;20036;-63
2024/01/12 03:08:30;;;;;;;40.45;38.35;;;;;;;;;;5035434;28;20844;-69
2024/01/12 03:10:55;;;;;;;40.25;38.05;;;;;;;;;;5036914;28;20059;-68
2024/01/12 03:13:21;;;;;;;40.55;38.45;;;;;;;;;;5035611;28;20036;-63
2024/01/12 03:15:46;;;;;;;40.33;38.13;;;;;;;;;;5034962;28;20037;-63
2024/01/12 03:18:11;;;;;;;42.15;39.75;;;;;;;;;;5033455;28;20112;-63
2024/01/12 03:20:37;;;;;;;39.33;37.22;;;;;;;;;;5039666;28;20592;-63
2024/01/12 03:23:02;;;;;;;43.70;41.33;;;;;;;;;;5030725;28;20037;-63
2024/01/12 03:25:28;;;;;;;41.78;39.38;;;;;;;;;;5036434;28;20095;-69
2024/01/12 03:27:53;;;;;;;38.90;36.90;;;;;;;;;;5032817;28;20026;-69
2024/01/12 03:30:18;;;;;;;43.60;41.20;;;;;;;;;;5034665;28;20055;-63
2024/01/12 03:32:44;;;;;;;40.45;38.30;;;;;;;;;;5033186;28;20033;-63
2024/01/12 03:35:09;;;;;;;40.78;38.58;;;;;;;;;;5033297;28;20041;-63
2024/01/12 03:37:35;;;;;;;39.75;37.30;;;;;;;;;;5032582;28;20049;-63
2024/01/12 03:40:00;;;;;;;41.85;39.50;;;;;;;;;;5033836;28;20041;-68
2024/01/12 03:42:25;;;;;;;41.78;39.53;;;;;;;;;;5034149;28;20025;-69
2024/01/12 03:44:51;;;;;;;40.47;38.33;;;;;;;;;;5034409;28;20123;-63
2024/01/12 03:47:16;;;;;;;41.00;38.83;;;;;;;;;;5033401;28;20475;-69
2024/01/12 03:49:43;;;;;;;40.85;38.45;;;;;;;;;;5031788;28;20122;-69
2024/01/12 03:52:09;;;;;;;40.95;38.63;;;;;;;;;;5031048;28;20056;-63
2024/01/12 03:54:34;;;;;;;41.70;39.50;;;;;;;;;;5031712;28;20029;-63
2024/01/12 03:57:00;;;;;;;41.17;38.97;;;;;;;;;;5035093;28;20056;-63
2024/01/12 03:59:25;;;;;;;39.83;37.78;;;;;;;;;;5036466;28;20033;-63
2024/01/12 04:01:50;;;;;;;38.70;36.55;;;;;;;;;;5035766;28;20120;-63
2024/01/12 04:04:16;;;;;;;41.38;39.10;;;;;;;;;;5033788;28;20064;-63
2024/01/12 04:06:42;;;;;;;41.45;39.22;;;;;;;;;;5034916;28;20038;-63
2024/01/12 04:09:09;;;;;;;41.58;39.28;;;;;;;;;;5032137;28;20037;-63
2024/01/12 04:11:36;;;;;;;39.88;37.72;;;;;;;;;;5035326;28;20175;-63
2024/01/12 04:14:01;;;;;;;40.15;38.05;;;;;;;;;;5032226;28;20032;-63
2024/01/12 04:16:27;;;;;;;40.63;38.28;;;;;;;;;;5036221;28;20028;-63
2024/01/12 04:18:52;;;;;;;41.78;39.53;;;;;;;;;;5036126;28;20410;-63
2024/01/12 04:21:17;;;;;;;41.95;39.72;;;;;;;;;;5037954;28;20395;-69
2024/01/12 04:23:43;;;;;;;42.03;39.60;;;;;;;;;;5033334;28;20033;-69
2024/01/12 04:26:08;;;;;;;41.70;39.47;;;;;;;;;;5034055;28;20044;-66
2024/01/12 04:28:34;;;;;;;43.17;40.83;;;;;;;;;;5033685;28;20365;-63
2024/01/12 04:31:03;;;;;;;43.17;40.47;;;;;;;;;;5033698;28;20045;-69
2024/01/12 04:33:32;;;;;;;43.15;40.92;;;;;;;;;;5029671;28;20118;-69
2024/01/12 04:35:58;;;;;;;40.53;38.30;;;;;;;;;;5035035;28;20540;-63
2024/01/12 04:38:25;;;;;;;44.65;42.28;;;;;;;;;;5028049;28;20112;-63
2024/01/12 04:40:52;;;;;;;45.15;42.25;;;;;;;;;;5032400;28;20120;-63
2024/01/12 04:43:17;;;;;;;43.75;41.50;;;;;;;;;;5031491;28;20045;-63
2024/01/12 04:45:42;;;;;;;44.67;42.40;;;;;;;;;;5030452;28;20049;-64
2024/01/12 04:48:08;;;;;;;47.35;44.88;;;;;;;;;;5034399;28;20037;-69
2024/01/12 04:50:33;;;;;;;48.15;45.50;;;;;;;;;;5033245;28;20040;-69
2024/01/12 04:52:58;;;;;;;45.65;43.20;;;;;;;;;;5035187;28;20183;-69
2024/01/12 04:55:25;;;;;;;45.08;42.53;;;;;;;;;;5032572;28;20612;-69
2024/01/12 04:57:50;;;;;;;46.75;44.03;;;;;;;;;;5027022;28;20103;-63
2024/01/12 05:00:16;;;;;;;47.88;45.28;;;;;;;;;;5028958;28;21079;-63
2024/01/12 05:02:42;;;;;;;49.22;46.45;;;;;;;;;;5029787;28;20063;-63
2024/01/12 05:05:10;;;;;;;47.75;45.17;;;;;;;;;;5032739;28;20040;-68
2024/01/12 05:07:36;;;;;;;47.65;45.15;;;;;;;;;;5031321;28;20319;-70
2024/01/12 05:10:03;;;;;;;47.35;44.70;;;;;;;;;;5031528;28;20033;-63
2024/01/12 05:12:28;;;;;;;48.67;46.03;;;;;;;;;;5028445;28;20203;-70
2024/01/12 05:14:54;;;;;;;45.65;43.25;;;;;;;;;;5031643;28;20127;-64
2024/01/12 05:17:19;;;;;;;46.42;43.90;;;;;;;;;;5031600;28;20052;-64
2024/01/12 05:19:45;;;;;;;48.72;46.13;;;;;;;;;;5029848;28;20033;-70
2024/01/12 05:22:11;;;;;;;43.25;40.95;;;;;;;;;;5028188;28;20065;-64
2024/01/12 05:24:37;;;;;;;46.05;43.65;;;;;;;;;;5026675;28;20537;-64
2024/01/12 05:27:02;;;;;;;47.78;45.28;;;;;;;;;;5028594;28;20057;-64
2024/01/12 05:29:28;;;;;;;46.92;44.45;;;;;;;;;;5033750;28;20427;-70
2024/01/12 05:31:53;;;;;;;48.00;45.47;;;;;;;;;;5030836;28;20044;-64
2024/01/12 05:34:18;;;;;;;46.75;44.33;;;;;;;;;;5032584;28;20024;-64
2024/01/12 05:36:44;;;;;;;48.55;45.95;;;;;;;;;;5032414;28;20120;-64
2024/01/12 05:39:10;;;;;;;46.90;44.40;;;;;;;;;;5029392;28;20044;-64
2024/01/12 05:41:35;;;;;;;45.58;43.22;;;;;;;;;;5032499;28;20064;-64
2024/01/12 05:44:01;;;;;;;47.55;44.92;;;;;;;;;;5033981;28;20041;-64
2024/01/12 05:46:27;;;;;;;50.10;47.35;;;;;;;;;;5031010;28;20033;-70
2024/01/12 05:48:53;;;;;;;50.60;47.88;;;;;;;;;;5034995;28;20563;-70
2024/01/12 05:51:18;;;;;;;46.85;44.17;;;;;;;;;;5034071;28;20045;-70
2024/01/12 05:53:44;;;;;;;49.63;46.35;;;;;;;;;;5033708;28;20447;-70
2024/01/12 05:56:09;;;;;;;49.65;46.95;;;;;;;;;;5037640;28;20724;-70
2024/01/12 05:58:35;;;;;;;47.85;45.35;;;;;;;;;;5035699;28;20030;-69
2024/01/12 06:01:00;;;;;;;47.20;44.67;;;;;;;;;;5037953;28;20044;-63
2024/01/12 06:03:28;;;;;;;48.35;45.70;;;;;;;;;;5035170;28;20079;-69
2024/01/12 06:05:54;;;;;;;50.92;48.22;;;;;;;;;;5039335;28;20420;-69
2024/01/12 06:08:19;;;;;;;49.17;46.13;;;;;;;;;;5033643;28;20474;-69
2024/01/12 06:10:45;;;;;;;47.47;44.92;;;;;;;;;;5036993;28;20040;-64
2024/01/12 06:13:10;;;;;;;48.83;46.28;;;;;;;;;;5034830;28;20053;-68
2024/01/12 06:15:36;;;;;;;48.33;45.55;;;;;;;;;;5035887;28;20156;-63
2024/01/12 06:18:01;;;;;;;48.83;46.22;;;;;;;;;;5069920;28;20041;-63
2024/01/12 06:20:27;;;;;;;50.63;47.92;;;;;;;;;;5036845;28;20644;-63
2024/01/12 06:22:53;;;;;;;47.97;45.47;;;;;;;;;;5036168;28;20087;-68
2024/01/12 06:25:18;;;;;;;48.20;45.63;;;;;;;;;;5036364;28;20367;-68
2024/01/12 06:27:44;;;;;;;50.97;48.13;;;;;;;;;;5034712;28;20091;-68
2024/01/12 06:30:10;;;;;;;49.38;46.78;;;;;;;;;;5033384;28;20062;-68
2024/01/12 06:32:38;;;;;;;54.38;51.47;;;;;;;;;;5034056;28;20044;-68
2024/01/12 06:35:08;;;;;;;51.88;48.97;;;;;;;;;;5035390;28;20032;-69
2024/01/12 06:37:33;;;;;;;51.15;48.45;;;;;;;;;;5035795;28;20026;-68
2024/01/12 06:40:00;;;;;;;48.70;46.00;;;;;;;;;;5037384;28;20348;-69
2024/01/12 06:42:25;;;;;;;52.55;49.65;;;;;;;;;;5031777;28;20052;-69
2024/01/12 06:44:51;;;;;;;50.10;47.40;;;;;;;;;;5031191;28;20029;-69
2024/01/12 06:47:16;;;;;;;51.30;48.50;;;;;;;;;;5031872;28;20627;-70
2024/01/12 06:49:43;;;;;;;51.10;48.33;;;;;;;;;;5034222;28;20033;-69
2024/01/12 06:52:08;;;;;;;51.88;49.08;;;;;;;;;;5035722;28;20040;-69
2024/01/12 06:54:34;;;;;;;50.20;47.47;;;;;;;;;;5031299;28;20047;-69
2024/01/12 06:56:59;;;;;;;49.80;47.22;;;;;;;;;;5034730;28;20152;-69
2024/01/12 06:59:24;;;;;;;50.63;47.85;;;;;;;;;;5033785;28;20029;-69
2024/01/12 07:01:50;;;;;;;53.33;50.42;;;;;;;;;;5032405;28;20834;-70
2024/01/12 07:04:15;;;;;;;53.58;50.78;;;;;;;;;;5033222;28;20438;-70
2024/01/12 07:06:40;;;;;;;54.85;51.85;;;;;;;;;;5032476;28;20037;-70
2024/01/12 07:09:06;;;;;;;52.60;49.83;;;;;;;;;;5034090;28;20037;-69
2024/01/12 07:11:32;;;;;;;55.58;52.58;;;;;;;;;;5033113;28;20367;-69
2024/01/12 07:13:57;;;;;;;56.83;53.72;;;;;;;;;;5033540;28;20041;-69
2024/01/12 07:16:22;;;;;;;56.40;53.20;;;;;;;;;;5033448;28;20383;-69
2024/01/12 07:18:48;;;;;;;56.78;53.78;;;;;;;;;;5033319;28;20109;-70
2024/01/12 07:21:13;;;;;;;55.08;52.08;;;;;;;;;;5036233;28;20116;-71
2024/01/12 07:23:39;;;;;;;54.33;51.42;;;;;;;;;;5032880;28;20067;-71
2024/01/12 07:26:04;;;;;;;54.53;51.72;;;;;;;;;;5031468;28;20029;-69
2024/01/12 07:28:30;;;;;;;53.38;50.63;;;;;;;;;;5030761;28;20538;-68
2024/01/12 07:30:56;;;;;;;54.63;51.72;;;;;;;;;;5033407;28;20040;-68
2024/01/12 07:33:21;;;;;;;55.50;52.42;;;;;;;;;;5032720;28;20075;-68
2024/01/12 07:35:47;;;;;;;53.38;50.58;;;;;;;;;;5034280;28;20057;-68
2024/01/12 07:38:12;;;;;;;54.65;51.40;;;;;;;;;;5031558;28;20084;-69
2024/01/12 07:40:38;;;;;;;56.45;53.55;;;;;;;;;;5031740;28;20053;-68
2024/01/12 07:43:03;;;;;;;56.47;53.17;;;;;;;;;;5034268;28;20087;-68
2024/01/12 07:45:29;;;;;;;56.67;53.22;;;;;;;;;;5030566;28;20342;-69
2024/01/12 07:47:54;;;;;;;55.40;52.40;;;;;;;;;;5032656;28;20453;-68
2024/01/12 07:50:20;;;;;;;52.78;49.88;;;;;;;;;;5033128;28;20047;-68
2024/01/12 07:52:45;;;;;;;53.25;50.42;;;;;;;;;;5032556;28;21203;-69
2024/01/12 07:55:11;;;;;;;56.88;53.65;;;;;;;;;;5033696;28;20075;-65
2024/01/12 07:57:37;;;;;;;58.47;55.38;;;;;;;;;;5033012;28;20040;-68
2024/01/12 08:00:03;;;;;;;57.30;54.28;;;;;;;;;;5032788;28;20033;-69
2024/01/12 08:02:28;;;;;;;57.53;54.53;;;;;;;;;;5031044;28;20038;-68
2024/01/12 08:04:54;;;;;;;58.30;55.20;;;;;;;;;;5025237;28;20025;-68
2024/01/12 08:07:19;;;;;;;57.10;54.10;;;;;;;;;;5034325;28;20041;-69
2024/01/12 08:09:44;;;;;;;56.05;52.88;;;;;;;;;;5030789;28;20832;-68
2024/01/12 08:12:10;;;;;;;56.83;53.75;;;;;;;;;;5063583;28;20064;-69
2024/01/12 08:14:35;;;;;;;56.50;53.40;;;;;;;;;;5030471;28;20029;-68
2024/01/12 08:17:02;;;;;;;56.78;53.78;;;;;;;;;;5029802;28;20386;-68
2024/01/12 08:19:27;;;;;;;54.45;51.60;;;;;;;;;;5030215;28;20045;-68
2024/01/12 08:21:53;;;;;;;58.72;55.63;;;;;;;;;;5030853;28;20041;-68
2024/01/12 08:24:18;;;;;;;58.90;55.42;;;;;;;;;;5032070;28;20112;-69
2024/01/12 08:26:48;;;;;;;57.85;54.65;;;;;;;;;;5028784;28;20036;-68
2024/01/12 08:29:13;;;;;;;58.22;55.10;;;;;;;;;;5031674;28;20100;-68
2024/01/12 08:31:39;;;;;;;59.47;56.28;;;;;;;;;;5030169;28;20317;-68
2024/01/12 08:34:04;;;;;;;59.33;56.08;;;;;;;;;;5035488;28;20026;-69
2024/01/12 08:36:29;;;;;;;61.20;57.42;;;;;;;;;;5032155;28;20447;-68
2024/01/12 08:38:55;;;;;;;57.47;54.50;;;;;;;;;;5031129;28;20606;-68
2024/01/12 08:41:20;;;;;;;57.33;53.70;;;;;;;;;;5034628;28;20605;-69
2024/01/12 08:43:45;;;;;;;57.13;54.08;;;;;;;;;;5029235;28;20033;-68
2024/01/12 08:46:11;;;;;;;55.60;52.42;;;;;;;;;;5030892;28;20036;-69
2024/01/12 08:48:36;;;;;;;58.10;55.08;;;;;;;;;;5030929;28;20026;-69
2024/01/12 08:51:02;;;;;;;57.45;54.35;;;;;;;;;;5031097;28;20034;-69
2024/01/12 08:53:27;;;;;;;57.53;54.50;;;;;;;;;;5029114;28;20051;-68
2024/01/12 08:55:53;;;;;;;61.85;58.45;;;;;;;;;;5034505;28;20045;-68
2024/01/12 08:58:19;;;;;;;58.92;55.75;;;;;;;;;;5032657;28;20033;-68
2024/01/12 09:00:44;;;;;;;59.67;56.58;;;;;;;;;;5030081;28;20033;-69
2024/01/12 09:03:09;;;;;;;57.88;54.67;;;;;;;;;;5032098;28;20029;-69
2024/01/12 09:05:35;;;;;;;62.67;59.38;;;;;;;;;;5032298;28;20549;-68
2024/01/12 09:08:01;;;;;;;61.95;58.15;;;;;;;;;;5031461;28;20156;-68
2024/01/12 09:10:27;;;;;;;59.97;56.72;;;;;;;;;;5030006;28;20033;-68
2024/01/12 09:12:52;;;;;;;59.78;56.60;;;;;;;;;;5036572;28;20407;-69
2024/01/12 09:15:18;;;;;;;60.45;57.25;;;;;;;;;;5033394;28;20037;-69
2024/01/12 09:17:43;;;;;;;60.80;57.50;;;;;;;;;;5031138;28;20039;-68
2024/01/12 09:20:09;;;;;;;59.28;55.95;;;;;;;;;;5032217;28;20063;-68
2024/01/12 09:22:35;;;;;;;63.95;60.45;;;;;;;;;;5029104;28;20114;-68
2024/01/12 09:25:00;;;;;;;61.65;58.25;;;;;;;;;;5032014;28;20095;-69
2024/01/12 09:27:25;;;;;;;62.33;58.83;;;;;;;;;;5027072;28;20752;-68
2024/01/12 09:29:51;;;;;;;60.30;57.22;;;;;;;;;;5032678;28;20362;-68
2024/01/12 09:32:16;;;;;;;60.15;57.00;;;;;;;;;;5031234;28;20103;-69
2024/01/12 09:34:41;;;;;;;60.30;56.90;;;;;;;;;;5028665;28;20030;-68
2024/01/12 09:37:07;;;;;;;59.05;55.95;;;;;;;;;;5029545;28;20067;-68
2024/01/12 09:39:33;;;;;;;62.60;59.08;;;;;;;;;;5030634;28;20049;-68
2024/01/12 09:42:02;;;;;;;60.17;57.08;;;;;;;;;;5033114;28;20048;-69
2024/01/12 09:44:28;;;;;;;59.25;56.15;;;;;;;;;;5031974;28;20542;-69
2024/01/12 09:46:57;;;;;;;61.70;58.45;;;;;;;;;;5032670;28;20112;-69
2024/01/12 09:49:26;;;;;;;60.88;57.67;;;;;;;;;;5032638;28;20052;-69
2024/01/12 09:51:51;;;;;;;61.05;57.90;;;;;;;;;;5030089;28;20041;-69
2024/01/12 09:54:17;;;;;;;58.92;55.80;;;;;;;;;;5031487;28;20526;-68
2024/01/12 09:56:43;;;;;;;62.28;58.88;;;;;;;;;;5028823;28;20102;-68
2024/01/12 09:59:09;;;;;;;62.08;58.67;;;;;;;;;;5033055;28;20079;-68
2024/01/12 10:01:34;;;;;;;59.58;56.50;;;;;;;;;;5031382;28;20049;-69
2024/01/12 10:03:59;;;;;;;60.33;57.08;;;;;;;;;;5036037;28;20034;-69
2024/01/12 10:06:25;;;;;;;61.03;57.83;;;;;;;;;;5032340;28;20417;-69
2024/01/12 10:08:51;;;;;;;59.50;56.30;;;;;;;;;;5028302;28;20451;-69
2024/01/12 10:11:16;;;;;;;57.40;54.38;;;;;;;;;;5031061;28;20128;-69
2024/01/12 10:13:41;;;;;;;58.45;55.35;;;;;;;;;;5031480;28;20596;-70
2024/01/12 10:16:07;;;;;;;62.97;59.47;;;;;;;;;;5023283;28;20088;-69
2024/01/12 10:18:33;;;;;;;60.60;57.17;;;;;;;;;;5031167;28;20048;-69
2024/01/12 10:20:59;;;;;;;59.58;56.28;;;;;;;;;;5031598;28;20044;-69
2024/01/12 10:23:26;;;;;;;59.05;55.97;;;;;;;;;;5031460;28;20112;-69
2024/01/12 10:25:59;;;;;;;60.20;57.08;;;;;;;;;;5031821;28;20355;-69
2024/01/12 10:28:27;;;;;;;61.20;57.40;;;;;;;;;;5029359;28;20034;-69
2024/01/12 10:30:53;;;;;;;57.42;54.42;;;;;;;;;;5031738;28;20645;-69
2024/01/12 10:33:18;;;;;;;61.67;58.47;;;;;;;;;;5033404;28;20030;-69
2024/01/12 10:35:48;;;;;;;58.60;55.35;;;;;;;;;;5031574;28;20561;-69
2024/01/12 10:38:14;;;;;;;60.33;57.13;;;;;;;;;;5029029;28;20032;-69
2024/01/12 10:40:40;;;;;;;62.83;59.17;;;;;;;;;;5029842;28;20049;-69
2024/01/12 10:43:09;;;;;;;59.50;56.35;;;;;;;;;;5035312;28;20108;-69
2024/01/12 10:45:35;;;;;;;58.60;55.33;;;;;;;;;;5048723;28;20047;-69
2024/01/12 10:48:03;;;;;;;66.18;61.92;;;;;;;;;;5036069;28;20040;-69
2024/01/12 10:50:39;;;;;;;61.97;58.67;;;;;;;;;;5033239;28;20092;-69
2024/01/12 10:53:05;;;;;;;65.55;61.95;;;;;;;;;;5032297;28;20441;-69
2024/01/12 10:55:34;;;;;;;60.53;57.35;;;;;;;;;;5035923;28;20120;-69
2024/01/12 10:58:03;;;;;;;61.30;58.03;;;;;;;;;;5033701;28;20036;-68
2024/01/12 11:00:32;;;;;;;65.18;61.70;;;;;;;;;;5034201;28;20055;-69
2024/01/12 11:03:02;;;;;;;60.25;57.05;;;;;;;;;;5034112;28;20029;-70
2024/01/12 11:05:28;;;;;;;60.03;56.85;;;;;;;;;;5034807;28;20091;-69
2024/01/12 11:07:57;;;;;;;60.45;57.25;;;;;;;;;;5027585;28;20038;-69
2024/01/12 11:10:23;;;;;;;61.58;58.38;;;;;;;;;;5033107;28;20063;-69
2024/01/12 11:12:50;;;;;;;61.55;58.15;;;;;;;;;;5032322;28;20045;-69
2024/01/12 11:15:16;;;;;;;61.00;57.80;;;;;;;;;;5035966;28;20088;-69
2024/01/12 11:17:41;;;;;;;63.00;58.10;;;;;;;;;;5034630;28;20045;-69
2024/01/12 11:20:12;;;;;;;64.28;60.95;;;;;;;;;;5032364;28;20069;-70
2024/01/12 11:22:38;;;;;;;63.45;59.85;;;;;;;;;;5032048;28;20057;-69
2024/01/12 11:25:06;;;;;;;63.33;59.92;;;;;;;;;;5036558;28;20128;-69
2024/01/12 11:27:38;;;;;;;59.15;56.15;;;;;;;;;;5032497;28;20075;-69
2024/01/12 11:30:05;;;;;;;59.97;56.67;;;;;;;;;;5034762;28;20102;-69
2024/01/12 11:32:31;;;;;;;66.70;62.80;;;;;;;;;;5033305;28;20050;-69
2024/01/12 11:35:20;;;;;;;59.75;56.70;;;;;;;;;;5035992;28;20036;-69
2024/01/12 11:38:05;;;;;;;59.92;56.75;;;;;;;;;;5012523;28;20084;-69
2024/01/12 11:40:30;;;;;;;61.75;58.28;;;;;;;;;;5035685;28;20834;-69
2024/01/12 11:42:59;;;;;;;62.85;59.45;;;;;;;;;;5036135;28;20044;-68
2024/01/12 11:45:25;;;;;;;60.35;57.15;;;;;;;;;;5032391;28;20040;-68
2024/01/12 11:47:50;;;;;;;57.22;54.17;;;;;;;;;;5032761;28;20569;-69
2024/01/12 11:50:16;;;;;;;59.78;56.67;;;;;;;;;;5036352;28;20641;-69
2024/01/12 11:52:42;;;;;;;60.40;57.17;;;;;;;;;;5032940;28;20635;-69
2024/01/12 11:55:09;;;;;;;58.88;55.70;;;;;;;;;;5034178;28;20030;-69
2024/01/12 11:57:35;;;;;;;60.45;57.22;;;;;;;;;;5035145;28;20037;-69
2024/01/12 12:00:06;;;;;;;60.17;56.92;;;;;;;;;;5033885;28;20033;-69
2024/01/12 12:02:32;;;;;;;58.20;54.92;;;;;;;;;;5032691;28;20065;-69
2024/01/12 12:04:57;;;;;;;58.38;55.35;;;;;;;;;;5030682;28;20033;-69
2024/01/12 12:07:25;;;;;;;58.78;55.58;;;;;;;;;;5034513;28;20042;-69
2024/01/12 12:09:50;;;;;;;60.78;57.47;;;;;;;;;;5030781;28;20041;-69
2024/01/12 12:12:16;;;;;;;59.25;56.05;;;;;;;;;;5032404;28;20595;-71
2024/01/12 12:15:07;;;;;;;66.60;60.95;;;;;;;;;;5026702;28;20036;-69
2024/01/12 12:17:38;;;;;;;61.22;57.65;;;;;;;;;;5032564;28;20041;-69
2024/01/12 12:20:10;;;;;;;57.90;54.72;;;;;;;;;;5030243;28;20037;-69
2024/01/12 12:22:43;;;;;;;55.75;52.75;;;;;;;;;;5030471;28;20028;-69
2024/01/12 12:25:16;;;;;;;54.45;51.60;;;;;;;;;;5030228;28;20048;-69
2024/01/12 12:27:44;;;;;;;50.92;48.20;;;;;;;;;;5032823;28;20026;-69
2024/01/12 12:30:10;;;;;;;51.47;48.75;;;;;;;;;;5030917;28;20846;-69
2024/01/12 12:32:44;;;;;;;56.25;53.35;;;;;;;;;;5032096;28;20029;-69
2024/01/12 12:35:13;;;;;;;50.70;48.03;;;;;;;;;;5031554;28;20045;-69
2024/01/12 12:37:39;;;;;;;54.92;51.83;;;;;;;;;;5029778;28;20044;-69
2024/01/12 12:40:07;;;;;;;54.38;51.42;;;;;;;;;;5032439;28;20044;-68
2024/01/12 12:42:33;;;;;;;52.13;49.30;;;;;;;;;;5037193;28;20032;-69
2024/01/12 12:44:59;;;;;;;53.00;50.10;;;;;;;;;;5032391;28;20030;-69
2024/01/12 12:47:24;;;;;;;53.95;51.15;;;;;;;;;;5033659;28;20039;-69
2024/01/12 12:49:51;;;;;;;56.70;53.58;;;;;;;;;;5032302;28;20032;-69
2024/01/12 12:52:16;;;;;;;53.53;50.70;;;;;;;;;;5030418;28;20107;-69
2024/01/12 12:54:42;;;;;;;51.45;48.65;;;;;;;;;;5033837;28;20782;-69
2024/01/12 12:57:07;;;;;;;50.42;47.72;;;;;;;;;;5032408;28;20064;-69
2024/01/12 12:59:33;;;;;;;52.28;49.50;;;;;;;;;;5029197;28;20037;-69
2024/01/12 13:02:02;;;;;;;50.95;47.85;;;;;;;;;;5031813;28;21736;-69
2024/01/12 13:04:28;;;;;;;52.42;49.67;;;;;;;;;;5033049;28;20038;-69
2024/01/12 13:06:53;;;;;;;49.42;46.40;;;;;;;;;;5030971;28;20037;-69
2024/01/12 13:09:18;;;;;;;49.08;46.28;;;;;;;;;;5032292;28;20087;-69
2024/01/12 13:11:44;;;;;;;48.42;45.88;;;;;;;;;;5032848;28;20033;-69
2024/01/12 13:14:10;;;;;;;50.10;47.40;;;;;;;;;;5030758;28;20045;-69
2024/01/12 13:16:38;;;;;;;49.08;46.47;;;;;;;;;;5027916;28;20030;-69
2024/01/12 13:19:04;;;;;;;48.22;45.72;;;;;;;;;;5027256;28;20328;-68
2024/01/12 13:21:31;;;;;;;47.55;45.08;;;;;;;;;;5031236;28;20067;-70
2024/01/12 13:24:00;;;;;;;48.58;45.97;;;;;;;;;;5028835;28;20030;-68
2024/01/12 13:26:32;;;;;;;45.75;43.40;;;;;;;;;;5033309;28;20130;-73
2024/01/12 13:28:57;;;;;;;48.97;46.15;;;;;;;;;;5032855;28;20032;-73
2024/01/12 13:31:23;;;;;;;48.22;45.72;;;;;;;;;;5033064;28;20098;-68
2024/01/12 13:33:49;;;;;;;49.95;46.92;;;;;;;;;;5029491;28;20152;-69
2024/01/12 13:36:15;;;;;;;47.08;44.55;;;;;;;;;;5029466;28;20448;-69
2024/01/12 13:38:41;;;;;;;49.85;46.97;;;;;;;;;;5027554;28;20109;-69
2024/01/12 13:41:09;;;;;;;47.85;45.38;;;;;;;;;;5031086;28;20032;-70
2024/01/12 13:43:34;;;;;;;48.58;46.03;;;;;;;;;;5026886;28;20041;-73
2024/01/12 13:46:03;;;;;;;51.10;48.40;;;;;;;;;;5032630;28;20383;-73
2024/01/12 13:48:29;;;;;;;50.88;48.20;;;;;;;;;;5028202;28;20044;-74
2024/01/12 13:50:55;;;;;;;55.63;52.72;;;;;;;;;;5030433;28;20033;-73
2024/01/12 13:53:21;;;;;;;54.95;51.90;;;;;;;;;;5029172;28;20053;-73
2024/01/12 13:55:46;;;;;;;60.00;56.85;;;;;;;;;;5031435;28;20037;-73
2024/01/12 13:58:12;;;;;;;55.58;52.70;;;;;;;;;;5033190;28;20061;-73
2024/01/12 14:00:38;;;;;;;55.50;52.63;;;;;;;;;;5032370;28;20053;-73
2024/01/12 14:03:05;;;;;;;55.63;52.75;;;;;;;;;;5031285;28;20384;-73
2024/01/12 14:05:31;;;;;;;55.20;52.38;;;;;;;;;;5033747;28;20440;-70
2024/01/12 14:07:56;;;;;;;53.90;51.10;;;;;;;;;;5034764;28;20119;-70
2024/01/12 14:10:22;;;;;;;58.33;55.33;;;;;;;;;;5020928;28;20041;-71